sensor_id;sensor_type;location;lat;lon;timestamp;P1;durP1;ratioP1;P2;durP2;ratioP2
68940;SDS011;55982;51.476;7.552;2022-10-18T00:02:16;10.43;;;5.10;;
68940;SDS011;55982;51.476;7.552;2022-10-18T00:04:43;9.38;;;4.65;;
68940;SDS011;55982;51.476;7.552;2022-10-18T00:07:10;12.00;;;4.68;;
68940;SDS011;55982;51.476;7.552;2022-10-18T00:09:35;10.02;;;4.72;;
68940;SDS011;55982;51.476;7.552;2022-10-18T00:12:00;7.07;;;4.53;;
68940;SDS011;55982;51.476;7.552;2022-10-18T00:14:26;8.15;;;4.55;;
68940;SDS011;55982;51.476;7.552;2022-10-18T00:16:51;11.13;;;3.88;;
68940;SDS011;55982;51.476;7.552;2022-10-18T00:19:16;5.72;;;4.20;;
68940;SDS011;55982;51.476;7.552;2022-10-18T00:21:42;8.63;;;4.55;;
68940;SDS011;55982;51.476;7.552;2022-10-18T00:24:08;6.72;;;4.20;;
68940;SDS011;55982;51.476;7.552;2022-10-18T00:26:33;12.18;;;4.68;;
68940;SDS011;55982;51.476;7.552;2022-10-18T00:29:00;9.27;;;5.15;;
68940;SDS011;55982;51.476;7.552;2022-10-18T00:31:29;14.20;;;6.15;;
68940;SDS011;55982;51.476;7.552;2022-10-18T00:33:58;10.82;;;6.20;;
68940;SDS011;55982;51.476;7.552;2022-10-18T00:36:26;12.10;;;5.70;;
68940;SDS011;55982;51.476;7.552;2022-10-18T00:38:52;13.35;;;6.88;;
68940;SDS011;55982;51.476;7.552;2022-10-18T00:41:19;12.93;;;6.22;;
68940;SDS011;55982;51.476;7.552;2022-10-18T00:43:50;16.75;;;6.38;;
68940;SDS011;55982;51.476;7.552;2022-10-18T00:46:16;14.10;;;6.90;;
68940;SDS011;55982;51.476;7.552;2022-10-18T00:48:41;15.07;;;7.43;;
68940;SDS011;55982;51.476;7.552;2022-10-18T00:51:07;14.05;;;8.32;;
68940;SDS011;55982;51.476;7.552;2022-10-18T00:53:33;15.15;;;7.63;;
68940;SDS011;55982;51.476;7.552;2022-10-18T00:55:58;11.30;;;6.93;;
68940;SDS011;55982;51.476;7.552;2022-10-18T00:58:23;13.25;;;7.55;;
68940;SDS011;55982;51.476;7.552;2022-10-18T01:00:49;15.70;;;7.35;;
68940;SDS011;55982;51.476;7.552;2022-10-18T01:03:14;14.30;;;7.38;;
68940;SDS011;55982;51.476;7.552;2022-10-18T01:05:41;15.15;;;7.13;;
68940;SDS011;55982;51.476;7.552;2022-10-18T01:21:49;16.90;;;6.78;;
68940;SDS011;55982;51.476;7.552;2022-10-18T01:27:13;12.15;;;6.72;;
68940;SDS011;55982;51.476;7.552;2022-10-18T01:32:57;13.65;;;6.80;;
68940;SDS011;55982;51.476;7.552;2022-10-18T01:35:29;15.50;;;7.20;;
68940;SDS011;55982;51.476;7.552;2022-10-18T01:37:58;16.33;;;8.02;;
68940;SDS011;55982;51.476;7.552;2022-10-18T01:40:27;16.65;;;7.95;;
68940;SDS011;55982;51.476;7.552;2022-10-18T01:42:54;13.38;;;7.45;;
68940;SDS011;55982;51.476;7.552;2022-10-18T01:45:19;14.77;;;7.60;;
68940;SDS011;55982;51.476;7.552;2022-10-18T01:47:47;11.82;;;7.38;;
68940;SDS011;55982;51.476;7.552;2022-10-18T01:50:13;20.15;;;7.43;;
68940;SDS011;55982;51.476;7.552;2022-10-18T01:52:48;15.73;;;7.63;;
68940;SDS011;55982;51.476;7.552;2022-10-18T01:55:15;14.65;;;7.82;;
68940;SDS011;55982;51.476;7.552;2022-10-18T02:00:41;11.90;;;7.72;;
68940;SDS011;55982;51.476;7.552;2022-10-18T02:05:37;11.43;;;7.50;;
68940;SDS011;55982;51.476;7.552;2022-10-18T02:11:02;16.55;;;8.38;;
68940;SDS011;55982;51.476;7.552;2022-10-18T02:13:34;16.42;;;8.52;;
68940;SDS011;55982;51.476;7.552;2022-10-18T02:16:06;17.35;;;8.52;;
68940;SDS011;55982;51.476;7.552;2022-10-18T02:19:02;17.42;;;10.18;;
68940;SDS011;55982;51.476;7.552;2022-10-18T02:21:32;19.13;;;10.68;;
68940;SDS011;55982;51.476;7.552;2022-10-18T02:23:59;15.20;;;10.43;;
68940;SDS011;55982;51.476;7.552;2022-10-18T02:26:26;20.65;;;12.23;;
68940;SDS011;55982;51.476;7.552;2022-10-18T02:28:52;21.05;;;11.68;;
68940;SDS011;55982;51.476;7.552;2022-10-18T02:31:28;23.48;;;11.27;;
68940;SDS011;55982;51.476;7.552;2022-10-18T02:34:02;20.92;;;11.38;;
68940;SDS011;55982;51.476;7.552;2022-10-18T02:36:36;14.93;;;9.02;;
68940;SDS011;55982;51.476;7.552;2022-10-18T02:39:07;15.10;;;9.25;;
68940;SDS011;55982;51.476;7.552;2022-10-18T02:41:38;18.23;;;9.45;;
68940;SDS011;55982;51.476;7.552;2022-10-18T02:44:03;13.52;;;8.75;;
68940;SDS011;55982;51.476;7.552;2022-10-18T02:46:29;12.65;;;8.20;;
68940;SDS011;55982;51.476;7.552;2022-10-18T02:48:54;13.98;;;8.75;;
68940;SDS011;55982;51.476;7.552;2022-10-18T02:51:19;13.25;;;8.82;;
68940;SDS011;55982;51.476;7.552;2022-10-18T02:53:45;12.57;;;8.48;;
68940;SDS011;55982;51.476;7.552;2022-10-18T02:56:10;13.02;;;8.98;;
68940;SDS011;55982;51.476;7.552;2022-10-18T02:58:36;14.43;;;8.75;;
68940;SDS011;55982;51.476;7.552;2022-10-18T03:01:01;16.98;;;8.50;;
68940;SDS011;55982;51.476;7.552;2022-10-18T03:03:26;12.90;;;8.38;;
68940;SDS011;55982;51.476;7.552;2022-10-18T03:05:52;14.55;;;7.95;;
68940;SDS011;55982;51.476;7.552;2022-10-18T03:08:17;16.10;;;8.93;;
68940;SDS011;55982;51.476;7.552;2022-10-18T03:10:44;18.48;;;8.57;;
68940;SDS011;55982;51.476;7.552;2022-10-18T03:13:10;15.23;;;8.57;;
68940;SDS011;55982;51.476;7.552;2022-10-18T03:15:35;22.02;;;10.05;;
68940;SDS011;55982;51.476;7.552;2022-10-18T03:18:01;23.05;;;9.75;;
68940;SDS011;55982;51.476;7.552;2022-10-18T03:20:26;18.75;;;8.63;;
68940;SDS011;55982;51.476;7.552;2022-10-18T03:22:51;16.63;;;9.38;;
68940;SDS011;55982;51.476;7.552;2022-10-18T03:25:17;19.35;;;9.50;;
68940;SDS011;55982;51.476;7.552;2022-10-18T03:27:42;16.70;;;9.13;;
68940;SDS011;55982;51.476;7.552;2022-10-18T03:30:08;18.38;;;9.30;;
68940;SDS011;55982;51.476;7.552;2022-10-18T03:32:35;18.85;;;9.15;;
68940;SDS011;55982;51.476;7.552;2022-10-18T03:35:01;15.05;;;8.68;;
68940;SDS011;55982;51.476;7.552;2022-10-18T03:37:27;19.02;;;9.00;;
68940;SDS011;55982;51.476;7.552;2022-10-18T03:39:52;16.65;;;9.40;;
68940;SDS011;55982;51.476;7.552;2022-10-18T03:42:17;18.98;;;10.05;;
68940;SDS011;55982;51.476;7.552;2022-10-18T03:44:43;15.85;;;10.25;;
68940;SDS011;55982;51.476;7.552;2022-10-18T03:47:08;17.58;;;10.40;;
68940;SDS011;55982;51.476;7.552;2022-10-18T03:49:33;16.20;;;9.52;;
68940;SDS011;55982;51.476;7.552;2022-10-18T03:51:59;18.52;;;9.32;;
68940;SDS011;55982;51.476;7.552;2022-10-18T03:54:24;15.13;;;9.00;;
68940;SDS011;55982;51.476;7.552;2022-10-18T03:56:49;20.25;;;8.27;;
68940;SDS011;55982;51.476;7.552;2022-10-18T03:59:15;15.18;;;8.70;;
68940;SDS011;55982;51.476;7.552;2022-10-18T04:01:41;26.90;;;9.85;;
68940;SDS011;55982;51.476;7.552;2022-10-18T04:04:06;22.40;;;11.18;;
68940;SDS011;55982;51.476;7.552;2022-10-18T04:06:32;21.05;;;9.85;;
68940;SDS011;55982;51.476;7.552;2022-10-18T04:08:57;23.63;;;10.63;;
68940;SDS011;55982;51.476;7.552;2022-10-18T04:11:22;21.65;;;9.23;;
68940;SDS011;55982;51.476;7.552;2022-10-18T04:13:48;14.57;;;8.55;;
68940;SDS011;55982;51.476;7.552;2022-10-18T04:16:14;19.35;;;8.90;;
68940;SDS011;55982;51.476;7.552;2022-10-18T04:18:39;17.35;;;10.15;;
68940;SDS011;55982;51.476;7.552;2022-10-18T04:21:05;19.80;;;9.00;;
68940;SDS011;55982;51.476;7.552;2022-10-18T04:23:30;18.38;;;9.32;;
68940;SDS011;55982;51.476;7.552;2022-10-18T04:25:56;16.27;;;9.32;;
68940;SDS011;55982;51.476;7.552;2022-10-18T04:28:21;20.02;;;9.13;;
68940;SDS011;55982;51.476;7.552;2022-10-18T04:30:50;15.27;;;9.20;;
68940;SDS011;55982;51.476;7.552;2022-10-18T04:33:16;18.65;;;9.40;;
68940;SDS011;55982;51.476;7.552;2022-10-18T04:35:42;19.90;;;9.73;;
68940;SDS011;55982;51.476;7.552;2022-10-18T04:38:08;21.42;;;9.70;;
68940;SDS011;55982;51.476;7.552;2022-10-18T04:40:34;17.90;;;9.45;;
68940;SDS011;55982;51.476;7.552;2022-10-18T04:42:59;17.30;;;9.25;;
68940;SDS011;55982;51.476;7.552;2022-10-18T04:45:24;17.80;;;9.73;;
68940;SDS011;55982;51.476;7.552;2022-10-18T04:47:50;20.73;;;10.30;;
68940;SDS011;55982;51.476;7.552;2022-10-18T04:50:15;23.55;;;10.57;;
68940;SDS011;55982;51.476;7.552;2022-10-18T04:52:41;23.00;;;11.32;;
68940;SDS011;55982;51.476;7.552;2022-10-18T04:55:06;24.02;;;11.45;;
68940;SDS011;55982;51.476;7.552;2022-10-18T04:57:32;23.05;;;11.15;;
68940;SDS011;55982;51.476;7.552;2022-10-18T04:59:57;22.48;;;11.02;;
68940;SDS011;55982;51.476;7.552;2022-10-18T05:02:22;30.38;;;13.30;;
68940;SDS011;55982;51.476;7.552;2022-10-18T05:04:48;23.92;;;12.18;;
68940;SDS011;55982;51.476;7.552;2022-10-18T05:07:13;20.20;;;11.65;;
68940;SDS011;55982;51.476;7.552;2022-10-18T05:09:38;26.75;;;13.30;;
68940;SDS011;55982;51.476;7.552;2022-10-18T05:12:04;27.33;;;13.75;;
68940;SDS011;55982;51.476;7.552;2022-10-18T05:14:29;32.65;;;14.57;;
68940;SDS011;55982;51.476;7.552;2022-10-18T05:16:54;25.17;;;14.25;;
68940;SDS011;55982;51.476;7.552;2022-10-18T05:19:20;25.33;;;13.57;;
68940;SDS011;55982;51.476;7.552;2022-10-18T05:21:45;30.10;;;13.80;;
68940;SDS011;55982;51.476;7.552;2022-10-18T05:24:11;30.92;;;14.73;;
68940;SDS011;55982;51.476;7.552;2022-10-18T05:26:36;37.95;;;18.08;;
68940;SDS011;55982;51.476;7.552;2022-10-18T05:29:02;37.13;;;16.30;;
68940;SDS011;55982;51.476;7.552;2022-10-18T05:31:27;33.53;;;16.58;;
68940;SDS011;55982;51.476;7.552;2022-10-18T05:33:53;31.15;;;15.80;;
68940;SDS011;55982;51.476;7.552;2022-10-18T05:36:18;31.00;;;15.40;;
68940;SDS011;55982;51.476;7.552;2022-10-18T05:38:43;40.25;;;17.50;;
68940;SDS011;55982;51.476;7.552;2022-10-18T05:41:09;34.95;;;18.05;;
68940;SDS011;55982;51.476;7.552;2022-10-18T05:43:36;37.10;;;17.73;;
68940;SDS011;55982;51.476;7.552;2022-10-18T05:46:02;39.70;;;17.88;;
68940;SDS011;55982;51.476;7.552;2022-10-18T05:48:29;39.17;;;19.00;;
68940;SDS011;55982;51.476;7.552;2022-10-18T05:50:56;43.25;;;17.77;;
68940;SDS011;55982;51.476;7.552;2022-10-18T05:53:23;41.13;;;17.65;;
68940;SDS011;55982;51.476;7.552;2022-10-18T05:55:48;37.25;;;18.23;;
68940;SDS011;55982;51.476;7.552;2022-10-18T05:58:14;37.05;;;19.17;;
68940;SDS011;55982;51.476;7.552;2022-10-18T06:00:39;45.15;;;20.20;;
68940;SDS011;55982;51.476;7.552;2022-10-18T06:03:04;45.22;;;18.65;;
68940;SDS011;55982;51.476;7.552;2022-10-18T06:05:30;42.67;;;18.52;;
68940;SDS011;55982;51.476;7.552;2022-10-18T06:07:55;42.72;;;19.80;;
68940;SDS011;55982;51.476;7.552;2022-10-18T06:10:21;48.70;;;20.45;;
68940;SDS011;55982;51.476;7.552;2022-10-18T06:12:46;46.03;;;20.83;;
68940;SDS011;55982;51.476;7.552;2022-10-18T06:15:12;46.58;;;21.27;;
68940;SDS011;55982;51.476;7.552;2022-10-18T06:17:37;46.95;;;21.23;;
68940;SDS011;55982;51.476;7.552;2022-10-18T06:20:02;51.47;;;20.73;;
68940;SDS011;55982;51.476;7.552;2022-10-18T06:22:28;54.40;;;22.10;;
68940;SDS011;55982;51.476;7.552;2022-10-18T06:24:53;56.20;;;21.70;;
68940;SDS011;55982;51.476;7.552;2022-10-18T06:27:19;49.22;;;21.83;;
68940;SDS011;55982;51.476;7.552;2022-10-18T06:29:44;53.33;;;21.52;;
68940;SDS011;55982;51.476;7.552;2022-10-18T06:32:09;56.95;;;22.30;;
68940;SDS011;55982;51.476;7.552;2022-10-18T06:34:35;52.65;;;23.52;;
68940;SDS011;55982;51.476;7.552;2022-10-18T06:37:00;47.15;;;21.33;;
68940;SDS011;55982;51.476;7.552;2022-10-18T06:39:26;59.15;;;21.70;;
68940;SDS011;55982;51.476;7.552;2022-10-18T06:41:52;52.50;;;21.70;;
68940;SDS011;55982;51.476;7.552;2022-10-18T06:44:17;51.65;;;22.35;;
68940;SDS011;55982;51.476;7.552;2022-10-18T06:46:44;64.05;;;23.35;;
68940;SDS011;55982;51.476;7.552;2022-10-18T06:49:11;51.03;;;22.33;;
68940;SDS011;55982;51.476;7.552;2022-10-18T06:51:38;52.95;;;22.88;;
68940;SDS011;55982;51.476;7.552;2022-10-18T06:54:04;57.05;;;24.35;;
68940;SDS011;55982;51.476;7.552;2022-10-18T06:56:29;64.32;;;25.15;;
68940;SDS011;55982;51.476;7.552;2022-10-18T06:58:55;49.90;;;23.60;;
68940;SDS011;55982;51.476;7.552;2022-10-18T07:01:20;53.65;;;23.27;;
68940;SDS011;55982;51.476;7.552;2022-10-18T07:03:46;55.33;;;23.75;;
68940;SDS011;55982;51.476;7.552;2022-10-18T07:06:13;59.17;;;24.27;;
68940;SDS011;55982;51.476;7.552;2022-10-18T07:08:41;51.70;;;23.48;;
68940;SDS011;55982;51.476;7.552;2022-10-18T07:11:06;46.90;;;23.25;;
68940;SDS011;55982;51.476;7.552;2022-10-18T07:13:35;60.30;;;22.98;;
68940;SDS011;55982;51.476;7.552;2022-10-18T07:16:07;52.05;;;22.42;;
68940;SDS011;55982;51.476;7.552;2022-10-18T07:18:35;58.97;;;24.80;;
68940;SDS011;55982;51.476;7.552;2022-10-18T07:21:03;54.28;;;23.67;;
68940;SDS011;55982;51.476;7.552;2022-10-18T07:23:33;54.25;;;24.15;;
68940;SDS011;55982;51.476;7.552;2022-10-18T07:25:59;66.07;;;25.75;;
68940;SDS011;55982;51.476;7.552;2022-10-18T07:28:25;70.65;;;25.85;;
68940;SDS011;55982;51.476;7.552;2022-10-18T07:30:51;68.75;;;27.15;;
68940;SDS011;55982;51.476;7.552;2022-10-18T07:33:17;73.75;;;25.83;;
68940;SDS011;55982;51.476;7.552;2022-10-18T07:35:44;60.80;;;24.40;;
68940;SDS011;55982;51.476;7.552;2022-10-18T07:38:09;65.75;;;26.30;;
68940;SDS011;55982;51.476;7.552;2022-10-18T07:40:35;50.20;;;25.52;;
68940;SDS011;55982;51.476;7.552;2022-10-18T07:43:00;56.90;;;25.38;;
68940;SDS011;55982;51.476;7.552;2022-10-18T07:45:26;52.65;;;25.52;;
68940;SDS011;55982;51.476;7.552;2022-10-18T07:47:55;52.47;;;24.10;;
68940;SDS011;55982;51.476;7.552;2022-10-18T07:50:21;53.65;;;23.73;;
68940;SDS011;55982;51.476;7.552;2022-10-18T07:52:46;56.08;;;24.73;;
68940;SDS011;55982;51.476;7.552;2022-10-18T07:55:11;52.85;;;25.08;;
68940;SDS011;55982;51.476;7.552;2022-10-18T07:57:37;48.72;;;23.55;;
68940;SDS011;55982;51.476;7.552;2022-10-18T08:00:02;53.58;;;26.35;;
68940;SDS011;55982;51.476;7.552;2022-10-18T08:02:28;50.35;;;23.60;;
68940;SDS011;55982;51.476;7.552;2022-10-18T08:04:53;51.78;;;25.75;;
68940;SDS011;55982;51.476;7.552;2022-10-18T08:07:19;48.65;;;23.95;;
68940;SDS011;55982;51.476;7.552;2022-10-18T08:09:44;53.72;;;25.00;;
68940;SDS011;55982;51.476;7.552;2022-10-18T08:12:09;52.45;;;25.13;;
68940;SDS011;55982;51.476;7.552;2022-10-18T08:14:35;50.75;;;24.17;;
68940;SDS011;55982;51.476;7.552;2022-10-18T08:17:00;54.75;;;25.73;;
68940;SDS011;55982;51.476;7.552;2022-10-18T08:19:26;53.42;;;24.80;;
68940;SDS011;55982;51.476;7.552;2022-10-18T08:21:51;53.53;;;25.92;;
68940;SDS011;55982;51.476;7.552;2022-10-18T08:24:16;47.47;;;24.20;;
68940;SDS011;55982;51.476;7.552;2022-10-18T08:26:42;49.50;;;23.98;;
68940;SDS011;55982;51.476;7.552;2022-10-18T08:29:07;52.80;;;24.38;;
68940;SDS011;55982;51.476;7.552;2022-10-18T08:31:33;48.88;;;24.67;;
68940;SDS011;55982;51.476;7.552;2022-10-18T08:33:58;43.72;;;22.95;;
68940;SDS011;55982;51.476;7.552;2022-10-18T08:36:24;50.22;;;24.55;;
68940;SDS011;55982;51.476;7.552;2022-10-18T08:38:49;49.70;;;24.77;;
68940;SDS011;55982;51.476;7.552;2022-10-18T08:46:55;44.97;;;23.55;;
68940;SDS011;55982;51.476;7.552;2022-10-18T08:49:35;46.50;;;26.35;;
68940;SDS011;55982;51.476;7.552;2022-10-18T08:52:03;54.08;;;28.00;;
68940;SDS011;55982;51.476;7.552;2022-10-18T08:57:33;60.30;;;30.73;;
68940;SDS011;55982;51.476;7.552;2022-10-18T09:00:00;70.13;;;30.95;;
68940;SDS011;55982;51.476;7.552;2022-10-18T09:02:34;68.45;;;31.45;;
68940;SDS011;55982;51.476;7.552;2022-10-18T09:19:05;84.60;;;36.08;;
68940;SDS011;55982;51.476;7.552;2022-10-18T09:26:52;84.00;;;38.20;;
68940;SDS011;55982;51.476;7.552;2022-10-18T09:37:31;84.47;;;41.95;;
68940;SDS011;55982;51.476;7.552;2022-10-18T09:40:02;99.93;;;45.70;;
68940;SDS011;55982;51.476;7.552;2022-10-18T09:42:37;96.43;;;47.50;;
68940;SDS011;55982;51.476;7.552;2022-10-18T09:45:15;96.07;;;47.58;;
68940;SDS011;55982;51.476;7.552;2022-10-18T09:47:52;99.82;;;44.10;;
68940;SDS011;55982;51.476;7.552;2022-10-18T09:50:24;80.90;;;39.25;;
68940;SDS011;55982;51.476;7.552;2022-10-18T09:55:29;79.85;;;37.80;;
68940;SDS011;55982;51.476;7.552;2022-10-18T09:58:00;63.75;;;34.88;;
68940;SDS011;55982;51.476;7.552;2022-10-18T10:00:32;63.85;;;36.25;;
68940;SDS011;55982;51.476;7.552;2022-10-18T10:03:06;58.30;;;31.08;;
68940;SDS011;55982;51.476;7.552;2022-10-18T10:05:36;60.25;;;32.47;;
68940;SDS011;55982;51.476;7.552;2022-10-18T10:08:02;53.78;;;29.83;;
68940;SDS011;55982;51.476;7.552;2022-10-18T10:10:29;49.80;;;29.80;;
68940;SDS011;55982;51.476;7.552;2022-10-18T10:13:14;57.33;;;31.92;;
68940;SDS011;55982;51.476;7.552;2022-10-18T10:15:55;51.63;;;29.65;;
68940;SDS011;55982;51.476;7.552;2022-10-18T10:18:33;59.72;;;32.20;;
68940;SDS011;55982;51.476;7.552;2022-10-18T10:21:02;62.53;;;33.20;;
68940;SDS011;55982;51.476;7.552;2022-10-18T10:23:36;54.92;;;30.85;;
68940;SDS011;55982;51.476;7.552;2022-10-18T10:26:31;57.03;;;31.10;;
68940;SDS011;55982;51.476;7.552;2022-10-18T10:29:02;65.20;;;31.08;;
68940;SDS011;55982;51.476;7.552;2022-10-18T10:31:29;50.17;;;30.90;;
68940;SDS011;55982;51.476;7.552;2022-10-18T10:36:36;65.15;;;35.80;;
68940;SDS011;55982;51.476;7.552;2022-10-18T10:39:12;62.45;;;33.95;;
68940;SDS011;55982;51.476;7.552;2022-10-18T10:41:46;62.88;;;35.60;;
68940;SDS011;55982;51.476;7.552;2022-10-18T10:44:20;58.20;;;33.55;;
68940;SDS011;55982;51.476;7.552;2022-10-18T10:46:52;53.42;;;31.42;;
68940;SDS011;55982;51.476;7.552;2022-10-18T10:49:27;58.33;;;34.13;;
68940;SDS011;55982;51.476;7.552;2022-10-18T10:52:06;62.25;;;33.30;;
68940;SDS011;55982;51.476;7.552;2022-10-18T10:54:42;58.70;;;33.33;;
68940;SDS011;55982;51.476;7.552;2022-10-18T10:59:57;56.90;;;32.03;;
68940;SDS011;55982;51.476;7.552;2022-10-18T11:05:18;60.38;;;34.72;;
68940;SDS011;55982;51.476;7.552;2022-10-18T11:07:51;60.22;;;35.67;;
68940;SDS011;55982;51.476;7.552;2022-10-18T11:10:25;55.22;;;34.28;;
68940;SDS011;55982;51.476;7.552;2022-10-18T11:15:56;49.72;;;31.95;;
68940;SDS011;55982;51.476;7.552;2022-10-18T11:18:34;54.75;;;33.80;;
68940;SDS011;55982;51.476;7.552;2022-10-18T11:21:05;55.28;;;32.13;;
68940;SDS011;55982;51.476;7.552;2022-10-18T11:23:39;47.78;;;30.90;;
68940;SDS011;55982;51.476;7.552;2022-10-18T11:31:31;55.35;;;35.00;;
68940;SDS011;55982;51.476;7.552;2022-10-18T11:48:31;51.85;;;34.10;;
68940;SDS011;55982;51.476;7.552;2022-10-18T11:56:35;41.60;;;30.52;;
68940;SDS011;55982;51.476;7.552;2022-10-18T11:59:44;43.10;;;29.83;;
68940;SDS011;55982;51.476;7.552;2022-10-18T12:04:48;42.90;;;30.23;;
68940;SDS011;55982;51.476;7.552;2022-10-18T12:07:16;42.00;;;29.58;;
68940;SDS011;55982;51.476;7.552;2022-10-18T12:09:44;45.67;;;30.23;;
68940;SDS011;55982;51.476;7.552;2022-10-18T12:12:32;43.97;;;29.58;;
68940;SDS011;55982;51.476;7.552;2022-10-18T12:15:14;45.53;;;30.05;;
68940;SDS011;55982;51.476;7.552;2022-10-18T12:17:44;38.70;;;27.38;;
68940;SDS011;55982;51.476;7.552;2022-10-18T12:20:20;36.83;;;26.55;;
68940;SDS011;55982;51.476;7.552;2022-10-18T12:25:34;40.72;;;27.08;;
68940;SDS011;55982;51.476;7.552;2022-10-18T12:33:55;35.67;;;24.27;;
68940;SDS011;55982;51.476;7.552;2022-10-18T12:36:40;40.60;;;24.45;;
68940;SDS011;55982;51.476;7.552;2022-10-18T12:39:25;35.17;;;24.05;;
68940;SDS011;55982;51.476;7.552;2022-10-18T12:41:54;32.40;;;21.65;;
68940;SDS011;55982;51.476;7.552;2022-10-18T12:44:22;31.92;;;20.65;;
68940;SDS011;55982;51.476;7.552;2022-10-18T12:46:55;26.95;;;19.63;;
68940;SDS011;55982;51.476;7.552;2022-10-18T12:49:29;29.55;;;19.48;;
68940;SDS011;55982;51.476;7.552;2022-10-18T12:52:04;26.58;;;18.42;;
68940;SDS011;55982;51.476;7.552;2022-10-18T12:54:33;28.45;;;19.63;;
68940;SDS011;55982;51.476;7.552;2022-10-18T12:57:01;26.25;;;19.15;;
68940;SDS011;55982;51.476;7.552;2022-10-18T12:59:41;26.17;;;19.63;;
68940;SDS011;55982;51.476;7.552;2022-10-18T13:02:08;29.98;;;19.85;;
68940;SDS011;55982;51.476;7.552;2022-10-18T13:09:35;28.65;;;20.55;;
68940;SDS011;55982;51.476;7.552;2022-10-18T13:14:35;27.65;;;21.15;;
68940;SDS011;55982;51.476;7.552;2022-10-18T13:17:28;36.65;;;22.48;;
68940;SDS011;55982;51.476;7.552;2022-10-18T13:33:45;24.00;;;16.48;;
68940;SDS011;55982;51.476;7.552;2022-10-18T13:41:23;21.88;;;11.40;;
68940;SDS011;55982;51.476;7.552;2022-10-18T13:44:10;14.73;;;10.10;;
68940;SDS011;55982;51.476;7.552;2022-10-18T14:05:54;13.65;;;6.70;;
68940;SDS011;55982;51.476;7.552;2022-10-18T14:08:45;11.63;;;6.68;;
68940;SDS011;55982;51.476;7.552;2022-10-18T14:16:51;10.85;;;4.55;;
68940;SDS011;55982;51.476;7.552;2022-10-18T14:22:25;11.15;;;4.53;;
68940;SDS011;55982;51.476;7.552;2022-10-18T14:27:24;9.93;;;4.40;;
68940;SDS011;55982;51.476;7.552;2022-10-18T14:32:47;11.80;;;3.55;;
68940;SDS011;55982;51.476;7.552;2022-10-18T14:35:48;11.85;;;4.55;;
68940;SDS011;55982;51.476;7.552;2022-10-18T14:38:11;9.48;;;3.40;;
68940;SDS011;55982;51.476;7.552;2022-10-18T14:40:38;9.30;;;3.92;;
68940;SDS011;55982;51.476;7.552;2022-10-18T14:43:14;7.93;;;3.45;;
68940;SDS011;55982;51.476;7.552;2022-10-18T14:45:43;10.63;;;3.40;;
68940;SDS011;55982;51.476;7.552;2022-10-18T14:48:13;13.32;;;3.70;;
68940;SDS011;55982;51.476;7.552;2022-10-18T14:50:40;9.88;;;3.35;;
68940;SDS011;55982;51.476;7.552;2022-10-18T14:53:10;9.38;;;3.70;;
68940;SDS011;55982;51.476;7.552;2022-10-18T14:55:40;9.93;;;3.70;;
68940;SDS011;55982;51.476;7.552;2022-10-18T14:58:15;11.45;;;3.15;;
68940;SDS011;55982;51.476;7.552;2022-10-18T15:00:41;8.40;;;3.10;;
68940;SDS011;55982;51.476;7.552;2022-10-18T15:03:09;15.30;;;3.85;;
68940;SDS011;55982;51.476;7.552;2022-10-18T15:05:38;8.98;;;3.15;;
68940;SDS011;55982;51.476;7.552;2022-10-18T15:08:16;10.75;;;3.00;;
68940;SDS011;55982;51.476;7.552;2022-10-18T15:10:41;6.68;;;2.58;;
68940;SDS011;55982;51.476;7.552;2022-10-18T15:13:07;11.38;;;2.90;;
68940;SDS011;55982;51.476;7.552;2022-10-18T15:15:37;9.93;;;3.38;;
68940;SDS011;55982;51.476;7.552;2022-10-18T15:18:03;14.60;;;3.80;;
68940;SDS011;55982;51.476;7.552;2022-10-18T15:20:31;10.50;;;2.80;;
68940;SDS011;55982;51.476;7.552;2022-10-18T15:25:51;10.15;;;2.72;;
68940;SDS011;55982;51.476;7.552;2022-10-18T15:28:29;7.95;;;2.42;;
68940;SDS011;55982;51.476;7.552;2022-10-18T15:30:59;12.10;;;2.60;;
68940;SDS011;55982;51.476;7.552;2022-10-18T15:33:26;11.90;;;3.50;;
68940;SDS011;55982;51.476;7.552;2022-10-18T15:36:06;8.48;;;3.03;;
68940;SDS011;55982;51.476;7.552;2022-10-18T15:38:34;9.40;;;2.63;;
68940;SDS011;55982;51.476;7.552;2022-10-18T15:41:01;12.15;;;3.80;;
68940;SDS011;55982;51.476;7.552;2022-10-18T15:43:47;11.10;;;2.97;;
68940;SDS011;55982;51.476;7.552;2022-10-18T15:46:27;7.72;;;3.08;;
68940;SDS011;55982;51.476;7.552;2022-10-18T15:48:54;8.65;;;3.00;;
68940;SDS011;55982;51.476;7.552;2022-10-18T15:51:46;13.55;;;3.05;;
68940;SDS011;55982;51.476;7.552;2022-10-18T15:54:16;9.82;;;3.53;;
68940;SDS011;55982;51.476;7.552;2022-10-18T15:56:42;6.10;;;2.35;;
68940;SDS011;55982;51.476;7.552;2022-10-18T15:59:25;11.60;;;3.13;;
68940;SDS011;55982;51.476;7.552;2022-10-18T16:01:53;10.50;;;2.80;;
68940;SDS011;55982;51.476;7.552;2022-10-18T16:04:23;11.77;;;3.20;;
68940;SDS011;55982;51.476;7.552;2022-10-18T16:06:49;10.63;;;3.40;;
68940;SDS011;55982;51.476;7.552;2022-10-18T16:09:16;9.80;;;2.47;;
68940;SDS011;55982;51.476;7.552;2022-10-18T16:11:44;11.02;;;3.55;;
68940;SDS011;55982;51.476;7.552;2022-10-18T16:14:10;12.05;;;3.30;;
68940;SDS011;55982;51.476;7.552;2022-10-18T16:16:37;14.93;;;3.58;;
68940;SDS011;55982;51.476;7.552;2022-10-18T16:19:04;20.83;;;3.35;;
68940;SDS011;55982;51.476;7.552;2022-10-18T16:21:31;12.77;;;3.80;;
68940;SDS011;55982;51.476;7.552;2022-10-18T16:23:59;11.65;;;3.28;;
68940;SDS011;55982;51.476;7.552;2022-10-18T16:26:25;13.02;;;3.60;;
68940;SDS011;55982;51.476;7.552;2022-10-18T16:28:51;17.90;;;3.38;;
68940;SDS011;55982;51.476;7.552;2022-10-18T16:31:19;15.93;;;3.17;;
68940;SDS011;55982;51.476;7.552;2022-10-18T16:33:45;21.73;;;5.55;;
68940;SDS011;55982;51.476;7.552;2022-10-18T16:36:15;15.80;;;4.55;;
68940;SDS011;55982;51.476;7.552;2022-10-18T16:38:42;14.05;;;5.07;;
68940;SDS011;55982;51.476;7.552;2022-10-18T16:41:09;17.17;;;4.35;;
68940;SDS011;55982;51.476;7.552;2022-10-18T16:43:34;16.60;;;3.67;;
68940;SDS011;55982;51.476;7.552;2022-10-18T16:46:00;15.25;;;3.88;;
68940;SDS011;55982;51.476;7.552;2022-10-18T16:48:26;17.52;;;3.95;;
68940;SDS011;55982;51.476;7.552;2022-10-18T16:50:52;24.40;;;6.40;;
68940;SDS011;55982;51.476;7.552;2022-10-18T16:53:19;20.67;;;6.40;;
68940;SDS011;55982;51.476;7.552;2022-10-18T16:55:49;12.57;;;4.50;;
68940;SDS011;55982;51.476;7.552;2022-10-18T16:58:19;16.92;;;4.35;;
68940;SDS011;55982;51.476;7.552;2022-10-18T17:00:46;16.05;;;4.80;;
68940;SDS011;55982;51.476;7.552;2022-10-18T17:03:12;20.50;;;5.93;;
68940;SDS011;55982;51.476;7.552;2022-10-18T17:05:38;16.85;;;4.80;;
68940;SDS011;55982;51.476;7.552;2022-10-18T17:08:05;20.98;;;5.03;;
68940;SDS011;55982;51.476;7.552;2022-10-18T17:10:30;17.80;;;5.20;;
68940;SDS011;55982;51.476;7.552;2022-10-18T17:12:56;20.17;;;4.78;;
68940;SDS011;55982;51.476;7.552;2022-10-18T17:15:22;17.88;;;5.70;;
68940;SDS011;55982;51.476;7.552;2022-10-18T17:17:47;16.38;;;4.43;;
68940;SDS011;55982;51.476;7.552;2022-10-18T17:20:23;28.67;;;4.90;;
68940;SDS011;55982;51.476;7.552;2022-10-18T17:22:50;18.23;;;4.32;;
68940;SDS011;55982;51.476;7.552;2022-10-18T17:25:16;29.52;;;4.70;;
68940;SDS011;55982;51.476;7.552;2022-10-18T17:27:43;18.50;;;4.22;;
68940;SDS011;55982;51.476;7.552;2022-10-18T17:30:09;9.77;;;3.53;;
68940;SDS011;55982;51.476;7.552;2022-10-18T17:32:35;23.48;;;4.85;;
68940;SDS011;55982;51.476;7.552;2022-10-18T17:35:01;25.55;;;4.57;;